Time;durP1;ratioP1;P1;durP2;ratioP2;P2;SDS_P1;SDS_P2;PMS_P1;PMS_P2;Temp;Humidity;BMP_temperature;BMP_pressure;BME280_temperature;BME280_humidity;BME280_pressure;Samples;Min_cycle;Max_cycle;Signal;HPM_P1;HPM_P2
2022/11/16 00:01:17;;;;;;;12.77;8.55;;;;;;;;;;7389986;19;20007;-78
2022/11/16 00:03:42;;;;;;;16.92;9.02;;;;;;;;;;7390643;19;20010;-76
2022/11/16 00:06:09;;;;;;;17.17;9.63;;;;;;;;;;7389270;19;20030;-77
2022/11/16 00:08:38;;;;;;;15.40;9.48;;;;;;;;;;7391513;19;20010;-76
2022/11/16 00:11:10;;;;;;;16.25;9.98;;;;;;;;;;7399184;19;19995;-76
2022/11/16 00:13:37;;;;;;;15.18;9.15;;;;;;;;;;7414923;19;19991;-77
2022/11/16 00:16:03;;;;;;;17.60;10.32;;;;;;;;;;7404404;19;20430;-78
2022/11/16 00:18:29;;;;;;;19.35;10.05;;;;;;;;;;7389710;19;20006;-78
2022/11/16 00:20:54;;;;;;;20.02;11.23;;;;;;;;;;7389383;19;19995;-76
2022/11/16 00:23:20;;;;;;;17.40;9.82;;;;;;;;;;7386965;19;20463;-78
2022/11/16 00:25:45;;;;;;;17.85;10.32;;;;;;;;;;7385157;19;20371;-77
2022/11/16 00:28:11;;;;;;;21.17;10.45;;;;;;;;;;7393349;19;20021;-77
2022/11/16 00:30:37;;;;;;;16.80;10.48;;;;;;;;;;7389016;19;19998;-77
2022/11/16 00:33:04;;;;;;;15.45;10.68;;;;;;;;;;7388415;19;20002;-78
2022/11/16 00:35:29;;;;;;;17.67;9.73;;;;;;;;;;7387049;19;20013;-78
2022/11/16 00:37:55;;;;;;;16.90;9.43;;;;;;;;;;7387853;19;20033;-79
2022/11/16 00:40:20;;;;;;;16.45;9.40;;;;;;;;;;7387786;19;20003;-79
2022/11/16 00:42:46;;;;;;;15.95;9.15;;;;;;;;;;7391840;19;19999;-75
2022/11/16 00:45:11;;;;;;;15.35;9.50;;;;;;;;;;7387106;19;20037;-76
2022/11/16 00:47:36;;;;;;;14.55;8.80;;;;;;;;;;7386536;19;20479;-76
2022/11/16 00:50:02;;;;;;;16.70;9.48;;;;;;;;;;7387808;19;20011;-78
2022/11/16 00:52:27;;;;;;;14.95;9.52;;;;;;;;;;7387705;19;20492;-77
2022/11/16 00:54:53;;;;;;;15.68;8.82;;;;;;;;;;7385941;19;20067;-76
2022/11/16 00:57:18;;;;;;;17.02;9.07;;;;;;;;;;7386919;19;20337;-77
2022/11/16 00:59:43;;;;;;;14.73;8.85;;;;;;;;;;7386880;19;20019;-79
2022/11/16 01:02:09;;;;;;;14.40;8.30;;;;;;;;;;7386995;19;20003;-80
2022/11/16 01:04:34;;;;;;;14.63;8.15;;;;;;;;;;7386373;19;20002;-78
2022/11/16 01:06:59;;;;;;;14.52;8.02;;;;;;;;;;7385410;19;20003;-78
2022/11/16 01:09:25;;;;;;;15.55;8.77;;;;;;;;;;7387338;19;20055;-76
2022/11/16 01:12:08;;;;;;;15.38;8.43;;;;;;;;;;7383795;19;19999;-76
2022/11/16 01:14:39;;;;;;;11.88;7.40;;;;;;;;;;7390310;19;20008;-78
2022/11/16 01:17:05;;;;;;;16.00;8.57;;;;;;;;;;7387825;19;20085;-79
2022/11/16 01:19:30;;;;;;;16.00;8.10;;;;;;;;;;7387034;19;19999;-79
2022/11/16 01:21:57;;;;;;;13.27;7.82;;;;;;;;;;7386048;19;20006;-77
2022/11/16 01:24:23;;;;;;;14.82;8.85;;;;;;;;;;7387863;19;19994;-78
2022/11/16 01:26:49;;;;;;;16.23;8.30;;;;;;;;;;7389683;19;19995;-77
2022/11/16 01:29:14;;;;;;;14.95;8.20;;;;;;;;;;7396352;19;20038;-76
2022/11/16 01:31:39;;;;;;;15.57;9.05;;;;;;;;;;7392891;19;20012;-78
2022/11/16 01:34:05;;;;;;;17.55;9.23;;;;;;;;;;7395311;19;20019;-76
2022/11/16 01:36:30;;;;;;;15.63;8.55;;;;;;;;;;7392841;19;19999;-77
2022/11/16 01:38:56;;;;;;;14.43;8.52;;;;;;;;;;7396096;19;20035;-78
2022/11/16 01:41:23;;;;;;;17.98;9.32;;;;;;;;;;7394499;19;20070;-76
2022/11/16 01:43:52;;;;;;;16.17;8.77;;;;;;;;;;7393364;19;20027;-76
2022/11/16 01:46:17;;;;;;;16.65;8.45;;;;;;;;;;7390514;19;20019;-77
2022/11/16 01:48:42;;;;;;;16.23;8.65;;;;;;;;;;7394543;19;20355;-75
2022/11/16 01:51:08;;;;;;;17.75;8.90;;;;;;;;;;7392440;19;20002;-76
2022/11/16 01:53:33;;;;;;;16.25;9.30;;;;;;;;;;7392889;19;20102;-76
2022/11/16 01:55:59;;;;;;;19.92;9.15;;;;;;;;;;7392645;19;20460;-76
2022/11/16 01:58:25;;;;;;;19.23;9.50;;;;;;;;;;7397333;19;20002;-76
2022/11/16 02:00:50;;;;;;;14.73;8.52;;;;;;;;;;7394591;19;20337;-78
2022/11/16 02:03:17;;;;;;;14.02;7.82;;;;;;;;;;7393435;19;19998;-77
2022/11/16 02:05:49;;;;;;;13.23;8.52;;;;;;;;;;7391316;19;19994;-77
2022/11/16 02:11:27;;;;;;;18.55;8.63;;;;;;;;;;7392832;19;19989;-78
2022/11/16 02:14:16;;;;;;;14.50;9.02;;;;;;;;;;7393531;19;20073;-78
2022/11/16 02:17:00;;;;;;;15.18;8.68;;;;;;;;;;7390713;19;19998;-78
2022/11/16 02:19:41;;;;;;;13.98;8.35;;;;;;;;;;7393627;19;20002;-78
2022/11/16 02:22:42;;;;;;;18.13;8.98;;;;;;;;;;7392825;19;19998;-77
2022/11/16 02:25:19;;;;;;;17.85;9.60;;;;;;;;;;7391336;19;19998;-79
2022/11/16 02:28:31;;;;;;;20.13;9.63;;;;;;;;;;7393158;19;20028;-77
2022/11/16 02:30:58;;;;;;;;;;;;;;;;;;7391477;19;20329;-77
2022/11/16 02:33:30;;;;;;;19.48;10.00;;;;;;;;;;7392891;19;20234;-77
2022/11/16 02:35:59;;;;;;;21.02;10.45;;;;;;;;;;7391252;19;19999;-78
2022/11/16 02:38:33;;;;;;;19.02;11.18;;;;;;;;;;7396057;19;20407;-79
2022/11/16 02:41:12;;;;;;;22.90;11.20;;;;;;;;;;7392141;19;20002;-78
2022/11/16 02:43:44;;;;;;;18.60;11.32;;;;;;;;;;7390767;19;20001;-77
2022/11/16 02:46:20;;;;;;;21.00;11.88;;;;;;;;;;7390449;19;19999;-79
2022/11/16 02:48:51;;;;;;;20.60;11.57;;;;;;;;;;7390698;19;20003;-77
2022/11/16 02:51:18;;;;;;;19.45;11.05;;;;;;;;;;7392218;19;20018;-77
2022/11/16 02:54:11;;;;;;;22.45;11.75;;;;;;;;;;7392599;19;19999;-80
2022/11/16 02:56:52;;;;;;;18.83;11.60;;;;;;;;;;7388713;19;20002;-77
2022/11/16 02:59:18;;;;;;;22.50;12.27;;;;;;;;;;7392272;19;20002;-77
2022/11/16 03:01:54;;;;;;;19.25;11.52;;;;;;;;;;7389780;19;20519;-79
2022/11/16 03:04:42;;;;;;;22.42;11.65;;;;;;;;;;7391366;19;19994;-78
2022/11/16 03:07:13;;;;;;;21.73;12.00;;;;;;;;;;7395185;19;20039;-79
2022/11/16 03:09:40;;;;;;;22.67;11.40;;;;;;;;;;7393832;19;20002;-78
2022/11/16 03:12:10;;;;;;;21.70;12.23;;;;;;;;;;7391377;19;20022;-78
2022/11/16 03:14:49;;;;;;;19.55;11.95;;;;;;;;;;7391734;19;20027;-78
2022/11/16 03:17:40;;;;;;;23.80;12.43;;;;;;;;;;7391588;19;20005;-79
2022/11/16 03:20:14;;;;;;;18.27;11.20;;;;;;;;;;7393990;19;20001;-79
2022/11/16 03:22:53;;;;;;;17.20;10.85;;;;;;;;;;7390613;19;20027;-78
2022/11/16 03:25:21;;;;;;;22.80;11.50;;;;;;;;;;7389002;19;20456;-77
2022/11/16 03:28:12;;;;;;;18.42;10.93;;;;;;;;;;7389997;19;20410;-79
2022/11/16 03:30:45;;;;;;;22.08;11.10;;;;;;;;;;7391296;19;20416;-78
2022/11/16 03:33:19;;;;;;;19.45;11.60;;;;;;;;;;7389661;19;20022;-77
2022/11/16 03:36:06;;;;;;;17.70;11.05;;;;;;;;;;7390137;19;20002;-78
2022/11/16 03:38:34;;;;;;;21.35;11.20;;;;;;;;;;7391135;19;20006;-77
2022/11/16 03:41:02;;;;;;;20.98;11.93;;;;;;;;;;7391084;19;20002;-78
2022/11/16 03:43:29;;;;;;;24.48;10.90;;;;;;;;;;7392380;19;20019;-79
2022/11/16 03:45:56;;;;;;;17.75;10.95;;;;;;;;;;7389467;19;19999;-79
2022/11/16 03:48:21;;;;;;;25.45;12.13;;;;;;;;;;7391186;19;20279;-79
2022/11/16 03:50:47;;;;;;;18.50;11.38;;;;;;;;;;7389459;19;20462;-78
2022/11/16 03:53:12;;;;;;;19.10;10.57;;;;;;;;;;7390215;19;20009;-79
2022/11/16 03:55:37;;;;;;;27.90;10.88;;;;;;;;;;7389888;19;20003;-78
2022/11/16 03:58:04;;;;;;;16.63;9.85;;;;;;;;;;7389173;19;20027;-78
2022/11/16 04:00:29;;;;;;;21.45;10.60;;;;;;;;;;7390628;19;20027;-79
2022/11/16 04:02:54;;;;;;;19.88;11.00;;;;;;;;;;7390356;19;19998;-78
2022/11/16 04:24:38;;;;;;;16.85;9.82;;;;;;;;;;7389063;19;20103;-77
2022/11/16 04:29:53;;;;;;;16.35;9.70;;;;;;;;;;7394284;19;20045;-78
2022/11/16 04:37:51;;;;;;;20.85;10.95;;;;;;;;;;7389535;19;20001;-78
2022/11/16 04:40:21;;;;;;;16.85;9.93;;;;;;;;;;7387651;19;20006;-77
2022/11/16 04:42:51;;;;;;;19.25;9.93;;;;;;;;;;7388482;19;20088;-77
2022/11/16 04:48:01;;;;;;;15.93;9.63;;;;;;;;;;7388991;19;20011;-77
2022/11/16 04:50:26;;;;;;;20.33;10.95;;;;;;;;;;7388859;19;19995;-78
2022/11/16 04:52:52;;;;;;;20.77;11.02;;;;;;;;;;7386300;19;20026;-78
2022/11/16 04:55:17;;;;;;;18.90;10.48;;;;;;;;;;7388353;19;20024;-76
2022/11/16 04:57:42;;;;;;;20.27;11.63;;;;;;;;;;7389681;19;20015;-77
2022/11/16 05:00:08;;;;;;;21.23;11.65;;;;;;;;;;7391481;19;19999;-78
2022/11/16 05:02:34;;;;;;;19.25;10.63;;;;;;;;;;7391305;19;20054;-78
2022/11/16 05:04:59;;;;;;;20.17;11.73;;;;;;;;;;7387787;19;20356;-79
2022/11/16 05:07:27;;;;;;;21.77;11.60;;;;;;;;;;7386570;19;20002;-77
2022/11/16 05:09:53;;;;;;;20.85;12.20;;;;;;;;;;7388515;19;20377;-75
2022/11/16 05:12:23;;;;;;;23.10;11.48;;;;;;;;;;7388036;19;20070;-76
2022/11/16 05:14:49;;;;;;;20.42;11.48;;;;;;;;;;7388627;19;19994;-77
2022/11/16 05:17:15;;;;;;;19.23;11.40;;;;;;;;;;7390661;19;20058;-78
2022/11/16 05:22:24;;;;;;;20.67;10.93;;;;;;;;;;7387631;19;20011;-78
2022/11/16 05:24:50;;;;;;;21.42;11.20;;;;;;;;;;7386332;19;20015;-77
2022/11/16 05:27:18;;;;;;;20.67;11.68;;;;;;;;;;7388325;19;20002;-78
2022/11/16 05:29:44;;;;;;;23.00;11.85;;;;;;;;;;7389013;19;20525;-78
2022/11/16 05:32:11;;;;;;;23.05;11.65;;;;;;;;;;7387605;19;20028;-78
2022/11/16 05:34:38;;;;;;;20.95;11.93;;;;;;;;;;7388610;19;20002;-77
2022/11/16 05:37:03;;;;;;;22.55;12.13;;;;;;;;;;7389926;19;20018;-77
2022/11/16 05:39:29;;;;;;;17.88;11.15;;;;;;;;;;7388321;19;20505;-77
2022/11/16 05:41:59;;;;;;;21.67;11.52;;;;;;;;;;7388675;19;19995;-79
2022/11/16 05:44:30;;;;;;;21.13;11.57;;;;;;;;;;7390299;19;20088;-76
2022/11/16 05:46:55;;;;;;;24.75;14.35;;;;;;;;;;7388442;19;20460;-77
2022/11/16 05:49:21;;;;;;;29.73;15.77;;;;;;;;;;7389664;19;20002;-77
2022/11/16 05:51:47;;;;;;;24.52;14.55;;;;;;;;;;7387043;19;19999;-76
2022/11/16 05:54:19;;;;;;;24.35;14.13;;;;;;;;;;7387969;19;20016;-78
2022/11/16 05:56:45;;;;;;;27.63;15.48;;;;;;;;;;7386104;19;20009;-78
2022/11/16 05:59:12;;;;;;;24.00;14.55;;;;;;;;;;7387724;19;20369;-77
2022/11/16 06:01:37;;;;;;;29.52;15.77;;;;;;;;;;7321489;19;20010;-78
2022/11/16 06:04:03;;;;;;;28.23;15.60;;;;;;;;;;7351332;19;20342;-79
2022/11/16 06:06:28;;;;;;;25.17;15.02;;;;;;;;;;7385534;19;20002;-78
2022/11/16 06:08:54;;;;;;;26.35;15.40;;;;;;;;;;7387165;19;20002;-76
2022/11/16 06:11:20;;;;;;;23.40;15.55;;;;;;;;;;7384351;19;20003;-76
2022/11/16 06:13:45;;;;;;;26.40;15.82;;;;;;;;;;7386018;19;20328;-76
2022/11/16 06:16:11;;;;;;;27.17;14.75;;;;;;;;;;7392526;19;20134;-78
2022/11/16 06:18:38;;;;;;;27.05;14.93;;;;;;;;;;7395551;19;20023;-76
2022/11/16 06:21:03;;;;;;;27.27;15.95;;;;;;;;;;7390845;19;20464;-76
2022/11/16 06:23:29;;;;;;;27.05;14.75;;;;;;;;;;7391246;19;20023;-78
2022/11/16 06:25:54;;;;;;;25.77;15.23;;;;;;;;;;7392072;19;20024;-77
2022/11/16 06:28:20;;;;;;;23.05;14.70;;;;;;;;;;7395425;19;20516;-78
2022/11/16 06:30:46;;;;;;;23.70;14.18;;;;;;;;;;7397093;19;20098;-78
2022/11/16 06:33:12;;;;;;;21.90;13.27;;;;;;;;;;7392599;19;20003;-77
2022/11/16 06:35:37;;;;;;;22.45;15.18;;;;;;;;;;7392408;19;20010;-77
2022/11/16 06:38:02;;;;;;;23.75;13.45;;;;;;;;;;7394148;19;20001;-76
2022/11/16 06:40:28;;;;;;;26.50;14.15;;;;;;;;;;7395502;19;19995;-76
2022/11/16 06:42:53;;;;;;;23.35;12.82;;;;;;;;;;7390467;19;20019;-77
2022/11/16 06:45:18;;;;;;;21.85;12.00;;;;;;;;;;7392762;19;19994;-76
2022/11/16 06:47:44;;;;;;;24.48;12.82;;;;;;;;;;7396177;19;19995;-77
2022/11/16 06:50:09;;;;;;;20.33;12.52;;;;;;;;;;7385181;19;20014;-77
2022/11/16 06:52:35;;;;;;;25.35;13.27;;;;;;;;;;7395324;19;20036;-76
2022/11/16 06:55:00;;;;;;;21.98;12.55;;;;;;;;;;7393112;19;20330;-77
2022/11/16 06:57:25;;;;;;;20.33;12.88;;;;;;;;;;7395128;19;20436;-76
2022/11/16 06:59:51;;;;;;;20.60;13.00;;;;;;;;;;7392890;19;20091;-78
2022/11/16 07:02:16;;;;;;;21.17;11.75;;;;;;;;;;7393063;19;20359;-75
2022/11/16 07:04:42;;;;;;;18.40;11.65;;;;;;;;;;7385312;19;19998;-80
2022/11/16 07:07:07;;;;;;;19.45;11.20;;;;;;;;;;7391554;19;20006;-76
2022/11/16 07:09:32;;;;;;;20.55;11.40;;;;;;;;;;7390047;19;19999;-77
2022/11/16 07:11:58;;;;;;;20.63;11.23;;;;;;;;;;7394909;19;20005;-77
2022/11/16 07:14:23;;;;;;;20.42;12.05;;;;;;;;;;7394674;19;20868;-86
2022/11/16 07:16:48;;;;;;;20.63;10.98;;;;;;;;;;7391606;19;20002;-80
2022/11/16 07:19:14;;;;;;;21.50;12.60;;;;;;;;;;7393146;19;20062;-81
2022/11/16 07:21:39;;;;;;;23.63;11.70;;;;;;;;;;7392479;19;20018;-81
2022/11/16 07:24:04;;;;;;;18.70;10.40;;;;;;;;;;7391417;19;20333;-79
2022/11/16 07:26:33;;;;;;;17.13;10.48;;;;;;;;;;7392003;19;19998;-80
2022/11/16 07:29:00;;;;;;;20.27;10.65;;;;;;;;;;7393944;19;19998;-79
2022/11/16 07:31:25;;;;;;;16.90;9.82;;;;;;;;;;7391276;19;20378;-83
2022/11/16 07:33:51;;;;;;;14.55;8.32;;;;;;;;;;7394405;19;19991;-81
2022/11/16 07:36:17;;;;;;;13.95;8.35;;;;;;;;;;7393144;19;20119;-80
2022/11/16 07:38:42;;;;;;;16.73;8.48;;;;;;;;;;7393647;19;20015;-77
2022/11/16 07:41:13;;;;;;;11.13;5.70;;;;;;;;;;7392703;19;20058;-91
2022/11/16 07:43:39;;;;;;;9.13;5.18;;;;;;;;;;7393601;19;20002;-85
2022/11/16 07:46:07;;;;;;;7.47;4.53;;;;;;;;;;7391988;19;20629;-86
2022/11/16 07:48:33;;;;;;;9.32;3.28;;;;;;;;;;7394456;19;20504;-76
2022/11/16 07:51:04;;;;;;;5.85;2.45;;;;;;;;;;7391512;19;20010;-76
2022/11/16 07:53:30;;;;;;;4.32;1.98;;;;;;;;;;7391910;19;20003;-76
2022/11/16 07:55:55;;;;;;;4.53;1.95;;;;;;;;;;7393436;19;20014;-77
2022/11/16 07:58:21;;;;;;;3.90;2.20;;;;;;;;;;7393516;19;20428;-77
2022/11/16 08:00:46;;;;;;;4.47;2.00;;;;;;;;;;7391172;19;19998;-79
2022/11/16 08:03:12;;;;;;;3.17;1.70;;;;;;;;;;7392779;19;19999;-83
2022/11/16 08:05:37;;;;;;;4.93;1.63;;;;;;;;;;7392956;19;20469;-85
2022/11/16 08:08:03;;;;;;;8.45;1.70;;;;;;;;;;7400352;19;20002;-90
2022/11/16 08:10:29;;;;;;;3.42;1.55;;;;;;;;;;7396627;19;19994;-91
2022/11/16 08:12:55;;;;;;;4.63;1.40;;;;;;;;;;7393486;19;20003;-90
2022/11/16 08:15:20;;;;;;;3.70;1.50;;;;;;;;;;7392142;19;20445;-80
2022/11/16 08:17:46;;;;;;;3.05;1.45;;;;;;;;;;7393335;19;19994;-80
2022/11/16 08:20:11;;;;;;;4.88;1.52;;;;;;;;;;7393273;19;20002;-78
2022/11/16 08:22:37;;;;;;;4.90;1.50;;;;;;;;;;7389626;19;20019;-85
2022/11/16 08:25:03;;;;;;;4.78;1.55;;;;;;;;;;7390767;19;20411;-80
2022/11/16 08:27:30;;;;;;;4.38;1.70;;;;;;;;;;7395257;19;20369;-81
2022/11/16 08:29:55;;;;;;;3.50;1.45;;;;;;;;;;7392775;19;19999;-81
2022/11/16 08:32:21;;;;;;;5.05;1.63;;;;;;;;;;7391095;19;19999;-83
2022/11/16 08:34:46;;;;;;;7.57;1.38;;;;;;;;;;7392688;19;20086;-86
2022/11/16 08:37:11;;;;;;;5.82;1.63;;;;;;;;;;7394394;19;19999;-81
2022/11/16 08:39:37;;;;;;;4.00;1.17;;;;;;;;;;7395915;19;20001;-79
2022/11/16 08:42:02;;;;;;;2.67;1.20;;;;;;;;;;7394237;19;20113;-79
2022/11/16 08:44:27;;;;;;;4.38;1.75;;;;;;;;;;7393276;19;19999;-83
2022/11/16 08:46:53;;;;;;;7.03;1.55;;;;;;;;;;7391804;19;20467;-77
2022/11/16 08:49:18;;;;;;;6.20;1.80;;;;;;;;;;7390618;19;19990;-80
2022/11/16 08:51:43;;;;;;;12.93;2.13;;;;;;;;;;7393321;19;20074;-79
2022/11/16 08:54:09;;;;;;;5.43;1.80;;;;;;;;;;7387778;19;19995;-82
2022/11/16 08:56:34;;;;;;;6.30;1.40;;;;;;;;;;7390585;19;20073;-81
2022/11/16 08:59:00;;;;;;;8.90;1.80;;;;;;;;;;7389199;19;20467;-78
2022/11/16 09:01:28;;;;;;;2.42;1.33;;;;;;;;;;7384881;19;20039;-77
2022/11/16 09:03:53;;;;;;;6.68;1.60;;;;;;;;;;7391563;19;20014;-81
2022/11/16 09:06:20;;;;;;;6.32;1.52;;;;;;;;;;7390541;19;20003;-81
2022/11/16 09:08:46;;;;;;;5.30;1.30;;;;;;;;;;7388034;19;20023;-82
2022/11/16 09:11:15;;;;;;;5.25;1.35;;;;;;;;;;7389839;19;20006;-79
2022/11/16 09:13:41;;;;;;;4.05;1.52;;;;;;;;;;7392482;19;19998;-79
2022/11/16 09:16:06;;;;;;;2.25;1.20;;;;;;;;;;7390576;19;20074;-77
2022/11/16 09:18:32;;;;;;;5.03;2.03;;;;;;;;;;7391015;19;20424;-79
2022/11/16 09:20:57;;;;;;;7.20;1.77;;;;;;;;;;7389798;19;19999;-78
2022/11/16 09:23:23;;;;;;;4.75;1.48;;;;;;;;;;7385840;19;20338;-75
2022/11/16 09:25:48;;;;;;;6.85;1.70;;;;;;;;;;7389237;19;20015;-77
2022/11/16 09:28:15;;;;;;;8.40;2.15;;;;;;;;;;7389511;19;20011;-80
2022/11/16 09:30:44;;;;;;;6.10;1.67;;;;;;;;;;7387931;19;20010;-78
2022/11/16 09:33:09;;;;;;;4.20;1.27;;;;;;;;;;7389289;19;20352;-76
2022/11/16 09:35:35;;;;;;;5.45;1.45;;;;;;;;;;7388881;19;19994;-76
2022/11/16 09:38:00;;;;;;;10.38;2.78;;;;;;;;;;7390700;19;19998;-78
2022/11/16 09:40:35;;;;;;;7.20;2.17;;;;;;;;;;7387183;19;20553;-81
2022/11/16 09:43:23;;;;;;;5.55;2.35;;;;;;;;;;7387005;19;20373;-80
2022/11/16 09:46:28;;;;;;;3.40;1.50;;;;;;;;;;7388083;19;20020;-78
2022/11/16 09:48:56;;;;;;;7.53;1.48;;;;;;;;;;7394314;19;20019;-77
2022/11/16 09:51:24;;;;;;;6.75;1.50;;;;;;;;;;7397782;19;20027;-77
2022/11/16 09:54:15;;;;;;;7.13;1.42;;;;;;;;;;7398484;19;20002;-79
2022/11/16 09:56:41;;;;;;;;;;;;;;;;;;7395001;19;19998;-80
2022/11/16 09:59:06;;;;;;;4.90;1.52;;;;;;;;;;7397068;19;19922;-76
2022/11/16 10:01:37;;;;;;;7.22;1.50;;;;;;;;;;7399452;19;20013;-78
2022/11/16 10:04:10;;;;;;;4.43;1.50;;;;;;;;;;7396283;19;20481;-78
2022/11/16 10:07:02;;;;;;;5.03;1.48;;;;;;;;;;7393998;19;20006;-89
2022/11/16 10:09:29;;;;;;;7.45;1.85;;;;;;;;;;7392167;19;20057;-83
2022/11/16 10:12:16;;;;;;;10.18;1.83;;;;;;;;;;7398540;19;20444;-84
2022/11/16 10:15:06;;;;;;;4.25;1.60;;;;;;;;;;7394779;19;19997;-78
2022/11/16 10:17:43;;;;;;;8.73;1.60;;;;;;;;;;7396551;19;20033;-79
2022/11/16 10:20:30;;;;;;;7.18;1.65;;;;;;;;;;7397824;19;19998;-78
2022/11/16 10:23:26;;;;;;;5.10;1.70;;;;;;;;;;7396027;19;20019;-77
2022/11/16 10:25:57;;;;;;;5.03;1.70;;;;;;;;;;7392645;19;19995;-80
2022/11/16 10:28:23;;;;;;;;;;;;;;;;;;7393645;19;19999;-78
2022/11/16 10:31:21;;;;;;;5.53;2.00;;;;;;;;;;7391152;19;20375;-79
2022/11/16 10:33:49;;;;;;;7.55;1.95;;;;;;;;;;7396519;19;20010;-82
2022/11/16 10:36:15;;;;;;;7.57;2.15;;;;;;;;;;7393818;19;20003;-84
2022/11/16 10:38:42;;;;;;;8.18;1.98;;;;;;;;;;7395002;19;20001;-80
2022/11/16 10:41:23;;;;;;;5.13;1.67;;;;;;;;;;7395295;19;20009;-83
2022/11/16 10:43:49;;;;;;;;;;;;;;;;;;7397612;19;20714;-81
2022/11/16 10:46:15;;;;;;;7.72;1.63;;;;;;;;;;7392355;19;19921;-78
2022/11/16 10:49:03;;;;;;;9.23;2.08;;;;;;;;;;7396471;19;20350;-77
2022/11/16 10:51:28;;;;;;;6.95;1.90;;;;;;;;;;7394889;19;20003;-77
2022/11/16 10:53:54;;;;;;;7.63;2.17;;;;;;;;;;7391138;19;20013;-78
2022/11/16 10:56:24;;;;;;;6.43;1.73;;;;;;;;;;7394421;19;19995;-79
2022/11/16 10:58:56;;;;;;;6.40;1.75;;;;;;;;;;7392387;19;20038;-80
2022/11/16 11:01:40;;;;;;;6.70;1.80;;;;;;;;;;7394006;19;20027;-77
2022/11/16 11:04:12;;;;;;;5.65;1.85;;;;;;;;;;7396052;19;20349;-77
2022/11/16 11:06:38;;;;;;;5.20;1.92;;;;;;;;;;7391060;19;19990;-80
2022/11/16 11:09:22;;;;;;;7.10;1.70;;;;;;;;;;7394804;19;20001;-77
2022/11/16 11:15:09;;;;;;;6.63;1.70;;;;;;;;;;7396793;19;20044;-76
2022/11/16 11:17:35;;;;;;;8.63;2.00;;;;;;;;;;7388563;19;20475;-76
2022/11/16 11:20:06;;;;;;;5.10;1.52;;;;;;;;;;7395371;19;20587;-82
2022/11/16 11:22:42;;;;;;;8.35;1.60;;;;;;;;;;7392918;19;20013;-80
2022/11/16 11:25:35;;;;;;;7.82;2.30;;;;;;;;;;7390196;19;20002;-80
2022/11/16 11:28:22;;;;;;;8.82;2.00;;;;;;;;;;7389812;19;20001;-79
2022/11/16 11:31:03;;;;;;;6.68;1.90;;;;;;;;;;7388618;19;20083;-80
2022/11/16 11:33:38;;;;;;;7.63;1.90;;;;;;;;;;7388979;19;20002;-79
2022/11/16 11:36:16;;;;;;;8.40;1.80;;;;;;;;;;7389254;19;20007;-80
2022/11/16 11:39:00;;;;;;;11.18;2.00;;;;;;;;;;7394343;19;20015;-81
2022/11/16 11:41:33;;;;;;;6.45;1.60;;;;;;;;;;7392421;19;19994;-80
2022/11/16 11:44:04;;;;;;;8.50;1.90;;;;;;;;;;7393593;19;20013;-80
2022/11/16 11:46:36;;;;;;;10.45;2.00;;;;;;;;;;7392732;19;20002;-80
2022/11/16 11:49:17;;;;;;;8.82;2.03;;;;;;;;;;7393307;19;20003;-79
2022/11/16 11:51:44;;;;;;;;;;;;;;;;;;7393610;19;20003;-79
2022/11/16 11:54:28;;;;;;;8.55;1.65;;;;;;;;;;7393155;19;19921;-80
2022/11/16 11:56:53;;;;;;;8.48;1.95;;;;;;;;;;7392192;19;20010;-77
2022/11/16 11:59:22;;;;;;;7.50;1.70;;;;;;;;;;7392205;19;19994;-76
2022/11/16 12:02:06;;;;;;;6.80;2.00;;;;;;;;;;7390786;19;20009;-76
2022/11/16 12:04:41;;;;;;;4.45;1.42;;;;;;;;;;7391391;19;20239;-74
2022/11/16 12:07:25;;;;;;;6.95;1.73;;;;;;;;;;7393794;19;19994;-76
2022/11/16 12:10:19;;;;;;;6.25;1.70;;;;;;;;;;7388645;19;20022;-77
2022/11/16 12:13:05;;;;;;;5.45;1.42;;;;;;;;;;7391790;19;20011;-77
2022/11/16 12:15:40;;;;;;;7.03;1.70;;;;;;;;;;7391267;19;19991;-77
2022/11/16 12:18:16;;;;;;;7.97;1.85;;;;;;;;;;7393186;19;20002;-77
2022/11/16 12:20:57;;;;;;;9.63;1.98;;;;;;;;;;7391130;19;20061;-75
2022/11/16 12:23:43;;;;;;;6.80;2.42;;;;;;;;;;7392442;19;19999;-76
2022/11/16 12:26:34;;;;;;;5.32;2.05;;;;;;;;;;7391755;19;20376;-76
2022/11/16 12:29:18;;;;;;;7.70;2.00;;;;;;;;;;7391675;19;20002;-76
2022/11/16 12:32:14;;;;;;;5.22;1.98;;;;;;;;;;7393000;19;20006;-75
2022/11/16 12:35:06;;;;;;;5.50;1.88;;;;;;;;;;7392818;19;20012;-77
2022/11/16 12:37:31;;;;;;;6.22;1.65;;;;;;;;;;7392202;19;20002;-76
2022/11/16 12:40:03;;;;;;;13.07;1.80;;;;;;;;;;7391941;19;20027;-77
2022/11/16 12:42:55;;;;;;;5.47;2.28;;;;;;;;;;7399228;19;20002;-86
2022/11/16 12:45:40;;;;;;;7.32;1.70;;;;;;;;;;7415411;19;20023;-85
2022/11/16 12:48:35;;;;;;;7.65;1.75;;;;;;;;;;7398880;19;20029;-78
2022/11/16 12:51:22;;;;;;;8.73;2.00;;;;;;;;;;7415491;19;20019;-87
2022/11/16 12:54:06;;;;;;;6.70;1.70;;;;;;;;;;7398264;19;20011;-91
2022/11/16 12:56:49;;;;;;;8.38;1.65;;;;;;;;;;7420837;19;20006;-88
2022/11/16 12:59:36;;;;;;;5.07;1.67;;;;;;;;;;7413853;19;20100;-85
2022/11/16 13:02:20;;;;;;;8.07;1.83;;;;;;;;;;7415512;19;20015;-87
2022/11/16 13:04:57;;;;;;;8.38;1.90;;;;;;;;;;7417364;19;19994;-88
2022/11/16 13:07:29;;;;;;;7.40;2.22;;;;;;;;;;7411345;19;19994;-85
2022/11/16 13:10:02;;;;;;;9.25;1.80;;;;;;;;;;7387853;19;20008;-86
2022/11/16 13:12:30;;;;;;;5.95;1.65;;;;;;;;;;7384523;19;20011;-87
2022/11/16 13:14:58;;;;;;;5.28;1.90;;;;;;;;;;7387892;19;20403;-85
2022/11/16 13:17:30;;;;;;;8.65;2.10;;;;;;;;;;7385909;19;20066;-86
2022/11/16 13:20:14;;;;;;;5.78;1.73;;;;;;;;;;7390222;19;20019;-86
2022/11/16 13:22:50;;;;;;;12.88;2.22;;;;;;;;;;7389992;19;20411;-87
2022/11/16 13:25:21;;;;;;;10.38;2.50;;;;;;;;;;7388974;19;20082;-86
2022/11/16 13:27:56;;;;;;;;;;;;;;;;;;7389161;19;20450;-86
2022/11/16 13:30:42;;;;;;;4.40;1.50;;;;;;;;;;7396140;19;19907;-87
2022/11/16 13:33:27;;;;;;;3.72;1.67;;;;;;;;;;7398816;19;20476;-85
2022/11/16 13:35:53;;;;;;;8.52;2.10;;;;;;;;;;7395804;19;20003;-87
2022/11/16 13:38:51;;;;;;;8.23;1.98;;;;;;;;;;7391463;19;19991;-87
2022/11/16 13:41:29;;;;;;;9.75;1.90;;;;;;;;;;7387436;19;20002;-87
2022/11/16 13:43:55;;;;;;;10.15;2.38;;;;;;;;;;7388448;19;20087;-87
2022/11/16 13:46:21;;;;;;;5.80;1.90;;;;;;;;;;7386638;19;20002;-87
2022/11/16 13:48:47;;;;;;;11.38;2.03;;;;;;;;;;7386037;19;19994;-87
2022/11/16 13:51:21;;;;;;;7.15;1.85;;;;;;;;;;7385733;19;20062;-87
2022/11/16 13:53:50;;;;;;;5.75;1.85;;;;;;;;;;7388342;19;20505;-87
2022/11/16 13:56:17;;;;;;;4.10;1.60;;;;;;;;;;7388179;19;20379;-87
2022/11/16 13:58:45;;;;;;;7.43;1.85;;;;;;;;;;7388131;19;20009;-87
2022/11/16 14:01:16;;;;;;;5.40;1.80;;;;;;;;;;7388933;19;20002;-87
2022/11/16 14:03:43;;;;;;;6.85;1.70;;;;;;;;;;7394414;19;19995;-87
2022/11/16 14:06:20;;;;;;;5.28;2.15;;;;;;;;;;7392936;19;20003;-86
2022/11/16 14:08:47;;;;;;;9.15;1.98;;;;;;;;;;7397795;19;19995;-86
2022/11/16 14:11:31;;;;;;;10.20;1.65;;;;;;;;;;7395355;19;20016;-87
2022/11/16 14:14:00;;;;;;;8.43;1.90;;;;;;;;;;7399610;19;19995;-87
2022/11/16 14:16:25;;;;;;;10.55;2.08;;;;;;;;;;7404540;19;20076;-87
2022/11/16 14:18:55;;;;;;;9.15;2.00;;;;;;;;;;7404628;19;20002;-88
2022/11/16 14:21:57;;;;;;;4.03;1.60;;;;;;;;;;7393282;19;20355;-88
2022/11/16 14:24:41;;;;;;;4.57;1.70;;;;;;;;;;7394343;19;20444;-87
2022/11/16 14:27:27;;;;;;;8.73;2.10;;;;;;;;;;7394279;19;20062;-88
2022/11/16 14:30:03;;;;;;;6.85;1.90;;;;;;;;;;7392025;19;20005;-90
2022/11/16 14:32:43;;;;;;;9.90;2.13;;;;;;;;;;7393128;19;19995;-88
2022/11/16 14:35:24;;;;;;;13.45;2.17;;;;;;;;;;7402041;19;19999;-86
2022/11/16 14:37:56;;;;;;;8.38;1.90;;;;;;;;;;7399856;19;20072;-87
2022/11/16 14:40:22;;;;;;;7.15;1.85;;;;;;;;;;7401048;19;20095;-85
2022/11/16 14:42:59;;;;;;;8.50;2.30;;;;;;;;;;7400322;19;20002;-86
2022/11/16 14:45:28;;;;;;;5.90;1.83;;;;;;;;;;7399942;19;20318;-88
2022/11/16 14:48:00;;;;;;;8.40;2.42;;;;;;;;;;7412553;19;19994;-87
2022/11/16 14:50:29;;;;;;;9.07;2.78;;;;;;;;;;7429019;19;20005;-89
2022/11/16 14:52:59;;;;;;;10.50;2.70;;;;;;;;;;7429666;19;19998;-91
2022/11/16 14:55:25;;;;;;;6.07;1.90;;;;;;;;;;7402606;19;20021;-90
2022/11/16 14:58:16;;;;;;;8.35;2.28;;;;;;;;;;7425888;19;20353;-90
2022/11/16 15:01:01;;;;;;;10.68;2.10;;;;;;;;;;7403330;19;20016;-91
2022/11/16 15:03:30;;;;;;;7.72;2.10;;;;;;;;;;7409530;19;20448;-91
2022/11/16 15:05:58;;;;;;;7.32;2.22;;;;;;;;;;7406310;19;20011;-91
2022/11/16 15:08:41;;;;;;;10.43;2.45;;;;;;;;;;7404494;19;20017;-91
2022/11/16 15:11:18;;;;;;;10.55;2.45;;;;;;;;;;7398756;19;19998;-91
2022/11/16 15:13:45;;;;;;;9.23;2.67;;;;;;;;;;7397136;19;20006;-90
2022/11/16 15:16:16;;;;;;;7.05;2.50;;;;;;;;;;7395314;19;20339;-90
2022/11/16 15:18:56;;;;;;;6.10;2.50;;;;;;;;;;7399918;19;20007;-89
2022/11/16 15:21:22;;;;;;;11.80;2.60;;;;;;;;;;7393554;19;20006;-91
2022/11/16 15:23:47;;;;;;;6.57;2.72;;;;;;;;;;7392674;19;20002;-89
2022/11/16 15:26:18;;;;;;;11.13;2.63;;;;;;;;;;7392203;19;20062;-88
2022/11/16 15:28:44;;;;;;;;;;;;;;;;;;7399015;19;19991;-89
2022/11/16 15:31:13;;;;;;;6.45;2.40;;;;;;;;;;7405494;19;19919;-89
2022/11/16 15:33:42;;;;;;;10.90;2.72;;;;;;;;;;7409947;19;20018;-89
2022/11/16 15:36:36;;;;;;;10.80;2.83;;;;;;;;;;7400714;19;20007;-88